createdAt,value
2022-07-27T00:02:25.349Z,16.64
2022-07-27T00:08:27.854Z,16.66
2022-07-27T00:14:29.877Z,16.74
2022-07-27T00:20:32.843Z,16.66
2022-07-27T00:26:34.918Z,16.62
2022-07-27T00:32:36.898Z,16.57
2022-07-27T00:38:39.018Z,16.61
2022-07-27T00:44:41.467Z,16.66
2022-07-27T00:50:46.113Z,16.57
2022-07-27T00:56:49.335Z,16.55
2022-07-27T01:02:51.725Z,16.67
2022-07-27T01:09:14.988Z,16.32
2022-07-27T01:15:17.784Z,16.35
2022-07-27T01:21:20.615Z,16.23
2022-07-27T01:27:22.638Z,16.00
2022-07-27T01:33:27.366Z,16.00
2022-07-27T01:39:30.530Z,15.89
2022-07-27T01:45:32.613Z,15.79
2022-07-27T01:51:34.590Z,15.44
2022-07-27T01:57:38.200Z,15.39
2022-07-27T02:03:40.287Z,15.34
2022-07-27T02:09:42.274Z,15.39
2022-07-27T02:15:44.541Z,15.26
2022-07-27T02:21:46.750Z,15.14
2022-07-27T02:27:49.717Z,15.01
2022-07-27T02:33:51.679Z,14.92
2022-07-27T02:39:54.562Z,14.82
2022-07-27T02:45:56.665Z,14.77
2022-07-27T02:51:58.936Z,14.70
2022-07-27T02:58:01.722Z,14.45
2022-07-27T03:04:04.301Z,14.33
2022-07-27T03:10:07.498Z,14.24
2022-07-27T03:16:09.740Z,14.17
2022-07-27T03:22:11.788Z,14.08
2022-07-27T03:28:13.827Z,13.97
2022-07-27T03:34:15.838Z,13.89
2022-07-27T03:40:18.142Z,13.80
2022-07-27T03:46:20.161Z,13.74
2022-07-27T03:52:22.200Z,13.82
2022-07-27T03:58:24.383Z,13.90
2022-07-27T04:04:26.332Z,13.83
2022-07-27T04:10:31.533Z,13.93
2022-07-27T04:16:36.227Z,14.18
2022-07-27T04:22:38.432Z,14.28
2022-07-27T04:28:40.399Z,14.36
2022-07-27T04:34:42.339Z,14.62
2022-07-27T04:40:44.353Z,14.58
2022-07-27T04:46:46.440Z,14.84
2022-07-27T04:52:49.231Z,14.95
2022-07-27T04:58:51.199Z,15.13
2022-07-27T05:04:53.175Z,15.20
2022-07-27T05:10:55.187Z,15.09
2022-07-27T05:16:57.281Z,15.34
2022-07-27T05:22:59.658Z,15.34
2022-07-27T05:29:01.611Z,15.22
2022-07-27T05:35:04.791Z,15.42
2022-07-27T05:41:10.209Z,15.85
2022-07-27T05:47:12.200Z,16.28
2022-07-27T05:53:14.182Z,16.48
2022-07-27T05:59:16.331Z,16.86
2022-07-27T06:05:18.376Z,17.19
2022-07-27T06:11:20.429Z,17.27
2022-07-27T06:17:22.385Z,17.30
2022-07-27T06:23:24.571Z,17.41
2022-07-27T06:29:26.651Z,17.48
2022-07-27T06:35:28.672Z,17.87
2022-07-27T06:41:31.037Z,17.89
2022-07-27T06:47:33.476Z,18.14
2022-07-27T06:53:37.430Z,18.34
2022-07-27T06:59:43.325Z,18.47
2022-07-27T07:05:47.147Z,18.96
2022-07-27T07:11:49.121Z,19.04
2022-07-27T07:17:51.175Z,18.97
2022-07-27T07:23:53.175Z,19.15
2022-07-27T07:29:55.342Z,19.12
2022-07-27T07:36:12.550Z,19.84
2022-07-27T07:42:16.570Z,19.92
2022-07-27T07:48:20.678Z,20.65
2022-07-27T07:54:22.784Z,20.86
2022-07-27T08:00:26.111Z,21.85
2022-07-27T08:06:28.518Z,21.34
2022-07-27T08:12:30.530Z,19.91
2022-07-27T08:18:32.859Z,20.71
2022-07-27T08:24:34.888Z,19.94
2022-07-27T08:30:37.035Z,20.06
2022-07-27T08:36:41.642Z,21.11
2022-07-27T08:42:44.039Z,21.85
2022-07-27T08:48:49.813Z,22.47
2022-07-27T08:54:52.328Z,23.32
2022-07-27T09:00:54.577Z,22.09
2022-07-27T09:06:56.648Z,20.69
2022-07-27T09:12:59.136Z,21.25
2022-07-27T09:19:05.652Z,21.41
2022-07-27T09:25:12.574Z,21.71
2022-07-27T09:31:16.640Z,22.28
2022-07-27T09:37:28.020Z,21.45
2022-07-27T09:49:53.731Z,21.85
2022-07-27T09:56:10.701Z,22.74
2022-07-27T10:02:16.748Z,22.48
2022-07-27T10:08:20.288Z,22.38
2022-07-27T10:14:22.232Z,22.21
2022-07-27T10:20:24.414Z,23.02
2022-07-27T10:26:26.252Z,23.25
2022-07-27T10:32:31.508Z,23.08
2022-07-27T10:38:37.493Z,23.08
2022-07-27T10:44:58.653Z,22.83
2022-07-27T10:51:00.784Z,23.21
2022-07-27T10:57:08.394Z,23.67
2022-07-27T11:03:19.443Z,23.24
2022-07-27T11:10:02.574Z,22.88
2022-07-27T11:16:25.732Z,23.10
2022-07-27T11:29:06.704Z,26.96
2022-07-27T11:35:19.825Z,26.45
2022-07-27T11:42:03.175Z,24.99
2022-07-27T11:47:58.813Z,23.65
2022-07-27T11:54:09.023Z,23.02
2022-07-27T12:00:12.122Z,25.82
2022-07-27T12:06:14.330Z,26.68
2022-07-27T12:12:21.843Z,25.95
2022-07-27T12:18:24.026Z,25.33
2022-07-27T12:24:38.666Z,24.14
2022-07-27T12:30:52.187Z,23.98
2022-07-27T12:36:54.314Z,24.10
2022-07-27T12:43:05.556Z,24.00
2022-07-27T12:49:16.205Z,26.87
2022-07-27T12:55:21.283Z,26.34
2022-07-27T13:01:23.353Z,25.82
2022-07-27T13:07:26.174Z,25.31
2022-07-27T13:13:28.408Z,25.27
2022-07-27T13:19:30.879Z,24.01
2022-07-27T13:25:32.985Z,23.55
2022-07-27T13:31:35.637Z,24.34
2022-07-27T13:37:37.773Z,25.66
2022-07-27T13:43:39.853Z,25.42
2022-07-27T13:49:41.846Z,25.27
2022-07-27T13:55:45.093Z,25.70
2022-07-27T14:01:47.430Z,25.77
2022-07-27T14:07:51.541Z,27.96
2022-07-27T14:13:53.676Z,29.54
2022-07-27T14:19:55.700Z,32.25
2022-07-27T14:25:59.346Z,30.60
2022-07-27T14:32:01.939Z,28.81
2022-07-27T14:38:04.455Z,27.85
2022-07-27T14:44:07.786Z,27.68
2022-07-27T14:50:10.201Z,30.90
2022-07-27T14:56:12.268Z,30.28
2022-07-27T15:02:14.357Z,27.88
2022-07-27T15:08:16.386Z,26.61
2022-07-27T15:14:18.436Z,25.97
2022-07-27T15:20:20.565Z,26.48
2022-07-27T15:26:22.722Z,29.90
2022-07-27T15:32:25.075Z,30.39
2022-07-27T15:38:28.725Z,27.89
2022-07-27T15:44:30.838Z,26.33
2022-07-27T15:50:32.891Z,25.34
2022-07-27T15:56:34.886Z,24.88
2022-07-27T16:02:37.029Z,24.10
2022-07-27T16:08:39.324Z,24.91
2022-07-27T16:14:41.381Z,25.16
2022-07-27T16:20:46.287Z,25.79
2022-07-27T16:26:48.336Z,24.92
2022-07-27T16:32:50.463Z,23.94
2022-07-27T16:38:53.153Z,24.12
2022-07-27T16:44:55.175Z,23.81
2022-07-27T16:50:57.831Z,23.58
2022-07-27T16:56:59.897Z,22.97
2022-07-27T17:03:01.944Z,22.96
2022-07-27T17:09:04.344Z,22.44
2022-07-27T17:15:07.757Z,22.79
2022-07-27T17:21:12.761Z,23.53
2022-07-27T17:27:15.090Z,26.22
2022-07-27T17:33:17.373Z,25.52
2022-07-27T17:39:19.467Z,24.35
2022-07-27T17:45:21.615Z,27.04
2022-07-27T17:51:25.302Z,29.10
2022-07-27T17:57:28.224Z,29.66
2022-07-27T18:03:33.710Z,29.42
2022-07-27T18:09:35.829Z,28.49
2022-07-27T18:15:47.042Z,26.04
2022-07-27T18:21:49.268Z,27.34
2022-07-27T18:27:51.663Z,27.87
2022-07-27T18:33:55.123Z,27.87
2022-07-27T18:39:57.252Z,27.11
2022-07-27T18:45:59.542Z,24.82
2022-07-27T18:52:01.708Z,22.61
2022-07-27T18:58:04.984Z,21.36
2022-07-27T19:04:07.461Z,20.71
2022-07-27T19:10:10.882Z,19.70
2022-07-27T19:16:13.302Z,19.26
2022-07-27T19:22:15.797Z,18.77
2022-07-27T19:28:20.486Z,18.18
2022-07-27T19:34:22.995Z,18.18
2022-07-27T19:40:45.115Z,17.61
2022-07-27T19:46:47.829Z,17.53
2022-07-27T19:52:49.906Z,17.03
2022-07-27T19:58:51.921Z,16.67
2022-07-27T20:04:54.216Z,16.62
2022-07-27T20:10:56.475Z,16.33
2022-07-27T20:16:58.866Z,16.31
2022-07-27T20:23:00.924Z,15.95
2022-07-27T20:29:03.000Z,15.74
2022-07-27T20:35:05.817Z,15.61
2022-07-27T20:41:07.773Z,15.43
2022-07-27T20:47:10.148Z,15.63
2022-07-27T20:53:12.222Z,15.53
2022-07-27T20:59:16.907Z,15.44
2022-07-27T21:05:21.565Z,15.31
2022-07-27T21:11:23.768Z,15.20
2022-07-27T21:17:25.831Z,15.03
2022-07-27T21:23:46.681Z,14.87
2022-07-27T21:29:49.026Z,14.72
2022-07-27T21:35:51.154Z,14.55
2022-07-27T21:41:55.196Z,14.36
2022-07-27T21:48:00.570Z,14.24
2022-07-27T21:54:02.679Z,14.14
2022-07-27T22:00:06.923Z,14.03
2022-07-27T22:06:09.130Z,14.04
2022-07-27T22:12:11.540Z,14.05
2022-07-27T22:18:13.562Z,14.07
2022-07-27T22:24:16.095Z,14.04
2022-07-27T22:30:18.535Z,14.07
2022-07-27T22:36:20.673Z,14.17
2022-07-27T22:42:22.685Z,14.13
2022-07-27T22:48:24.687Z,14.09
2022-07-27T22:54:26.651Z,14.09
2022-07-27T23:00:29.579Z,13.79
2022-07-27T23:06:31.601Z,13.58
2022-07-27T23:12:33.624Z,13.59
2022-07-27T23:18:35.595Z,13.84
2022-07-27T23:24:37.621Z,14.02
2022-07-27T23:30:43.709Z,13.90
2022-07-27T23:36:45.711Z,13.93
2022-07-27T23:42:47.980Z,13.70
2022-07-27T23:48:49.993Z,13.63
2022-07-27T23:54:52.017Z,13.46
